Time;durP1;ratioP1;P1;durP2;ratioP2;P2;SDS_P1;SDS_P2;PMS_P1;PMS_P2;Temp;Humidity;BMP_temperature;BMP_pressure;BME280_temperature;BME280_humidity;BME280_pressure;Samples;Min_cycle;Max_cycle;Signal;HPM_P1;HPM_P2
2023/11/08 00:01:33;;;;;;;7.35;1.52;;;;;8.70;98460.00;;;;4962841;28;20311;-62
2023/11/08 00:04:00;;;;;;;4.18;1.75;;;;;8.70;98460.00;;;;4960772;28;20043;-62
2023/11/08 00:06:26;;;;;;;4.82;1.90;;;;;8.80;98455.00;;;;4944299;29;20138;-62
2023/11/08 00:08:53;;;;;;;7.07;1.58;;;;;8.80;98463.00;;;;4960450;29;20047;-62
2023/11/08 00:11:23;;;;;;;3.55;1.77;;;;;8.80;98471.00;;;;4959483;29;20055;-62
2023/11/08 00:13:54;;;;;;;6.13;2.00;;;;;8.80;98468.00;;;;4959233;28;20239;-62
2023/11/08 00:16:21;;;;;;;5.05;1.73;;;;;8.80;98475.00;;;;4961455;29;20071;-62
2023/11/08 00:18:48;;;;;;;9.80;2.08;;;;;8.80;98469.00;;;;4970105;28;20052;-62
2023/11/08 00:21:15;;;;;;;5.53;1.70;;;;;8.90;98460.00;;;;4971213;28;20047;-64
2023/11/08 00:23:41;;;;;;;8.35;2.40;;;;;8.90;98463.00;;;;4971363;28;20054;-63
2023/11/08 00:26:08;;;;;;;7.50;2.33;;;;;8.90;98471.00;;;;4969333;28;20120;-62
2023/11/08 00:28:35;;;;;;;6.30;1.70;;;;;8.90;98475.00;;;;4956863;29;20117;-62
2023/11/08 00:31:01;;;;;;;6.15;2.05;;;;;8.90;98465.00;;;;4958542;28;20059;-62
2023/11/08 00:33:28;;;;;;;7.10;1.65;;;;;9.00;98471.00;;;;4956925;28;20047;-62
2023/11/08 00:35:54;;;;;;;4.25;1.70;;;;;9.00;98478.00;;;;4956710;28;20051;-62
2023/11/08 00:38:21;;;;;;;9.15;1.83;;;;;8.90;98471.00;;;;4940147;28;20115;-63
2023/11/08 00:40:47;;;;;;;3.50;1.75;;;;;9.00;98474.00;;;;4954935;28;20047;-62
2023/11/08 00:43:14;;;;;;;8.48;1.60;;;;;8.90;98466.00;;;;4956036;28;20051;-62
2023/11/08 00:45:41;;;;;;;5.25;1.80;;;;;8.90;98474.00;;;;4955569;28;20047;-62
2023/11/08 00:48:07;;;;;;;4.43;1.60;;;;;8.90;98468.00;;;;4954706;29;20046;-62
2023/11/08 00:50:34;;;;;;;3.50;1.45;;;;;8.90;98465.00;;;;4955553;28;20047;-62
2023/11/08 00:53:02;;;;;;;6.75;2.28;;;;;9.00;98472.00;;;;4955825;28;20068;-62
2023/11/08 00:55:29;;;;;;;7.45;1.60;;;;;9.00;98481.00;;;;4955165;28;20054;-61
2023/11/08 00:57:56;;;;;;;6.63;2.53;;;;;9.00;98477.00;;;;4955944;28;20138;-62
2023/11/08 01:00:24;;;;;;;5.43;1.70;;;;;9.00;98473.00;;;;4955761;28;20134;-61
2023/11/08 01:02:52;;;;;;;8.10;1.80;;;;;9.00;98472.00;;;;4954819;28;20055;-63
2023/11/08 01:05:19;;;;;;;4.53;1.63;;;;;9.00;98473.00;;;;4953920;28;20475;-63
2023/11/08 01:07:46;;;;;;;4.00;1.85;;;;;9.00;98469.00;;;;4955470;28;20051;-62
2023/11/08 01:10:16;;;;;;;7.45;1.80;;;;;9.00;98486.00;;;;4953981;28;20057;-62
2023/11/08 01:12:42;;;;;;;4.60;1.95;;;;;9.00;98484.00;;;;4953973;28;20492;-62
2023/11/08 01:15:09;;;;;;;2.83;1.60;;;;;9.00;98488.00;;;;4953654;29;20057;-62
2023/11/08 01:17:36;;;;;;;3.03;1.52;;;;;9.00;98482.00;;;;4954025;28;20065;-64
2023/11/08 01:20:03;;;;;;;3.65;1.42;;;;;9.00;98486.00;;;;4955153;28;20039;-62
2023/11/08 01:22:30;;;;;;;5.97;1.40;;;;;9.00;98488.00;;;;4955455;28;20407;-62
2023/11/08 01:24:56;;;;;;;4.22;1.58;;;;;9.00;98489.00;;;;4953231;29;20047;-63
2023/11/08 01:27:23;;;;;;;3.35;1.80;;;;;9.10;98495.00;;;;4954898;28;20047;-62
2023/11/08 01:29:49;;;;;;;3.85;1.77;;;;;9.00;98488.00;;;;4953582;28;20389;-62
2023/11/08 01:32:16;;;;;;;2.63;1.50;;;;;9.00;98491.00;;;;4937707;29;20619;-62
2023/11/08 01:34:43;;;;;;;6.07;1.70;;;;;9.00;98481.00;;;;4952911;28;20415;-64
2023/11/08 01:37:09;;;;;;;4.75;1.40;;;;;9.10;98491.00;;;;4955264;28;20399;-62
2023/11/08 01:39:36;;;;;;;7.50;2.33;;;;;9.10;98499.00;;;;4954817;28;20098;-63
2023/11/08 01:42:03;;;;;;;4.30;1.50;;;;;9.10;98499.00;;;;4953080;28;20045;-63
2023/11/08 01:44:30;;;;;;;2.72;1.45;;;;;9.10;98492.00;;;;4936953;28;20154;-62
2023/11/08 01:46:57;;;;;;;6.75;1.73;;;;;9.00;98482.00;;;;4953528;29;20058;-62
2023/11/08 01:49:25;;;;;;;3.53;1.73;;;;;8.90;98477.00;;;;4953579;28;20054;-62
2023/11/08 01:51:53;;;;;;;8.07;1.95;;;;;8.90;98474.00;;;;4954552;28;20043;-62
2023/11/08 01:54:20;;;;;;;12.00;2.33;;;;;8.90;98482.00;;;;4953920;28;20043;-62
2023/11/08 01:56:47;;;;;;;6.28;1.67;;;;;8.90;98483.00;;;;4953241;28;20059;-63
2023/11/08 01:59:16;;;;;;;4.07;1.70;;;;;8.90;98476.00;;;;4937251;29;20567;-63
2023/11/08 02:01:44;;;;;;;4.32;1.60;;;;;8.90;98477.00;;;;4937360;29;20045;-62
2023/11/08 02:04:11;;;;;;;5.40;1.77;;;;;8.90;98476.00;;;;4952583;28;20057;-62
2023/11/08 02:06:39;;;;;;;3.22;1.30;;;;;8.90;98474.00;;;;4952778;28;20051;-64
2023/11/08 02:09:06;;;;;;;6.32;2.17;;;;;8.90;98485.00;;;;4954298;28;20080;-64
2023/11/08 02:11:33;;;;;;;5.40;1.70;;;;;8.90;98485.00;;;;4952960;28;20098;-65
2023/11/08 02:14:01;;;;;;;5.85;1.88;;;;;8.90;98477.00;;;;4952463;29;20494;-65
2023/11/08 02:16:33;;;;;;;2.90;1.58;;;;;8.90;98481.00;;;;4953079;29;20094;-65
2023/11/08 02:18:59;;;;;;;4.05;1.70;;;;;9.00;98483.00;;;;4952949;29;20043;-65
2023/11/08 02:21:26;;;;;;;5.75;1.73;;;;;9.00;98475.00;;;;4954035;28;20041;-64
2023/11/08 02:23:54;;;;;;;5.57;2.35;;;;;9.00;98480.00;;;;4953594;28;20043;-65
2023/11/08 02:26:21;;;;;;;3.90;1.70;;;;;9.10;98490.00;;;;4936924;29;20058;-64
2023/11/08 02:28:47;;;;;;;5.60;2.00;;;;;9.10;98484.00;;;;4952773;28;20047;-64
2023/11/08 02:31:15;;;;;;;6.20;1.83;;;;;9.10;98486.00;;;;4954292;28;20043;-65
2023/11/08 02:33:42;;;;;;;4.63;1.63;;;;;9.00;98483.00;;;;4952753;29;20145;-65
2023/11/08 02:36:09;;;;;;;6.07;1.38;;;;;9.00;98486.00;;;;4936830;29;20456;-64
2023/11/08 02:38:35;;;;;;;4.45;1.58;;;;;9.00;98487.00;;;;4952790;28;20052;-65
2023/11/08 02:41:02;;;;;;;4.32;2.00;;;;;8.90;98489.00;;;;4952864;28;20050;-65
2023/11/08 02:43:31;;;;;;;3.63;1.60;;;;;8.90;98482.00;;;;4952383;29;20043;-65
2023/11/08 02:45:57;;;;;;;5.22;1.83;;;;;8.90;98485.00;;;;4953370;28;20487;-64
2023/11/08 02:48:24;;;;;;;6.68;1.92;;;;;8.90;98486.00;;;;4952706;28;20051;-64
2023/11/08 02:50:51;;;;;;;5.18;2.22;;;;;8.80;98490.00;;;;4952514;29;20051;-64
2023/11/08 02:53:20;;;;;;;6.20;2.10;;;;;8.80;98489.00;;;;4952737;28;20505;-65
2023/11/08 02:55:47;;;;;;;6.30;2.25;;;;;8.80;98487.00;;;;4956394;29;20492;-65
2023/11/08 02:58:13;;;;;;;6.78;2.58;;;;;8.70;98485.00;;;;4956719;29;20058;-63
2023/11/08 03:00:40;;;;;;;5.32;2.20;;;;;8.70;98484.00;;;;4957766;28;20117;-65
2023/11/08 03:03:07;;;;;;;6.90;2.20;;;;;8.70;98488.00;;;;4956440;29;20058;-65
2023/11/08 03:05:33;;;;;;;6.63;2.47;;;;;8.70;98483.00;;;;4955994;29;20522;-65
2023/11/08 03:08:00;;;;;;;5.78;2.70;;;;;8.70;98486.00;;;;4956384;28;20047;-64
2023/11/08 03:10:26;;;;;;;7.43;2.17;;;;;8.70;98488.00;;;;4956435;29;20051;-64
2023/11/08 03:12:54;;;;;;;7.28;2.42;;;;;8.70;98481.00;;;;4956433;29;20134;-64
2023/11/08 03:15:21;;;;;;;8.45;2.33;;;;;8.70;98482.00;;;;4956856;28;20039;-64
2023/11/08 03:17:53;;;;;;;8.60;2.25;;;;;8.70;98492.00;;;;4956206;29;20039;-64
2023/11/08 03:20:20;;;;;;;5.85;2.50;;;;;8.70;98498.00;;;;4940246;29;20047;-65
2023/11/08 03:22:47;;;;;;;5.60;2.65;;;;;8.70;98497.00;;;;4957578;28;20041;-65
2023/11/08 03:25:16;;;;;;;6.25;2.63;;;;;8.60;98490.00;;;;4955587;29;20066;-65
2023/11/08 03:27:44;;;;;;;5.88;2.60;;;;;8.60;98489.00;;;;4957333;28;20047;-65
2023/11/08 03:30:12;;;;;;;10.13;2.78;;;;;8.70;98501.00;;;;4955756;29;20094;-64
2023/11/08 03:32:40;;;;;;;6.28;2.50;;;;;8.70;98499.00;;;;4957128;28;20039;-64
2023/11/08 03:35:07;;;;;;;6.18;2.38;;;;;8.70;98499.00;;;;4956581;28;20047;-64
2023/11/08 03:37:38;;;;;;;8.52;2.53;;;;;8.70;98498.00;;;;4957388;28;20133;-65
2023/11/08 03:40:11;;;;;;;7.07;2.20;;;;;8.70;98499.00;;;;4955935;29;20526;-64
2023/11/08 03:42:41;;;;;;;6.93;2.65;;;;;8.70;98501.00;;;;4957012;28;20043;-64
2023/11/08 03:45:09;;;;;;;5.15;2.25;;;;;8.70;98503.00;;;;4955293;29;20047;-65
2023/11/08 03:47:37;;;;;;;3.30;2.13;;;;;8.70;98505.00;;;;4955654;29;20098;-65
2023/11/08 03:50:05;;;;;;;5.07;2.35;;;;;8.70;98512.00;;;;4957119;28;20106;-64
2023/11/08 03:52:31;;;;;;;5.25;2.22;;;;;8.70;98512.00;;;;4955748;28;20058;-64
2023/11/08 03:54:59;;;;;;;10.73;3.05;;;;;8.70;98508.00;;;;4954945;29;20090;-64
2023/11/08 03:57:26;;;;;;;13.57;2.75;;;;;8.70;98516.00;;;;4955454;29;20129;-65
2023/11/08 03:59:54;;;;;;;9.27;2.72;;;;;8.70;98515.00;;;;4956718;28;20488;-64
2023/11/08 04:02:21;;;;;;;6.35;2.65;;;;;8.70;98521.00;;;;4955336;28;20046;-64
2023/11/08 04:04:48;;;;;;;7.65;2.30;;;;;8.70;98522.00;;;;4955952;28;20118;-65
2023/11/08 04:07:15;;;;;;;11.70;2.38;;;;;8.70;98526.00;;;;4956541;28;20043;-65
2023/11/08 04:09:43;;;;;;;10.95;3.28;;;;;8.60;98527.00;;;;4939412;29;20055;-65
2023/11/08 04:12:11;;;;;;;8.23;2.63;;;;;8.70;98530.00;;;;4955402;29;20123;-64
2023/11/08 04:14:38;;;;;;;3.45;2.25;;;;;8.70;98531.00;;;;4955073;29;20292;-65
2023/11/08 04:17:09;;;;;;;4.75;2.40;;;;;8.70;98519.00;;;;4955534;29;20535;-64
2023/11/08 04:19:37;;;;;;;4.05;1.80;;;;;8.70;98539.00;;;;4956800;29;20579;-64
2023/11/08 04:22:05;;;;;;;6.35;2.28;;;;;8.70;98536.00;;;;4955534;28;20057;-65
2023/11/08 04:24:33;;;;;;;6.25;2.00;;;;;8.70;98541.00;;;;4954876;29;20069;-64
2023/11/08 04:27:02;;;;;;;11.80;2.92;;;;;8.70;98544.00;;;;4955958;29;20098;-65
2023/11/08 04:29:28;;;;;;;6.40;2.38;;;;;8.70;98540.00;;;;4955604;28;20059;-65
2023/11/08 04:31:55;;;;;;;7.25;2.28;;;;;8.70;98545.00;;;;4956936;28;20099;-64
2023/11/08 04:34:22;;;;;;;5.18;1.88;;;;;8.80;98554.00;;;;4939113;28;20051;-65
2023/11/08 04:36:48;;;;;;;9.90;2.45;;;;;8.80;98549.00;;;;4956574;28;20059;-65
2023/11/08 04:39:16;;;;;;;9.73;2.47;;;;;8.80;98540.00;;;;4956834;28;20492;-64
2023/11/08 04:41:44;;;;;;;7.65;2.45;;;;;8.80;98548.00;;;;4955656;29;20040;-65
2023/11/08 04:44:11;;;;;;;3.70;2.15;;;;;8.90;98545.00;;;;4956010;28;20043;-65
2023/11/08 04:46:42;;;;;;;3.08;1.90;;;;;8.90;98544.00;;;;4939595;29;20566;-65
2023/11/08 04:49:09;;;;;;;4.07;2.20;;;;;8.90;98550.00;;;;4955643;29;20047;-65
2023/11/08 04:51:36;;;;;;;6.95;2.40;;;;;8.90;98542.00;;;;4955526;29;20560;-65
2023/11/08 04:54:04;;;;;;;8.88;2.25;;;;;8.90;98546.00;;;;4955630;28;20110;-64
2023/11/08 04:56:30;;;;;;;8.68;2.15;;;;;8.80;98545.00;;;;4956610;28;20050;-65
2023/11/08 04:58:57;;;;;;;5.22;2.28;;;;;8.90;98553.00;;;;4956733;28;20047;-64
2023/11/08 05:01:24;;;;;;;4.10;2.10;;;;;8.90;98551.00;;;;4955253;29;20057;-64
2023/11/08 05:03:51;;;;;;;6.45;1.88;;;;;8.90;98546.00;;;;4954692;29;20411;-65
2023/11/08 05:06:17;;;;;;;6.95;2.22;;;;;9.00;98549.00;;;;4956252;28;20078;-64
2023/11/08 05:08:44;;;;;;;7.47;2.58;;;;;8.90;98548.00;;;;4955041;29;20049;-65
2023/11/08 05:11:10;;;;;;;4.93;1.90;;;;;8.90;98552.00;;;;4954500;29;20044;-64
2023/11/08 05:13:39;;;;;;;12.60;2.67;;;;;8.90;98551.00;;;;4955086;28;20515;-65
2023/11/08 05:16:06;;;;;;;5.53;2.33;;;;;8.90;98547.00;;;;4954402;29;20126;-65
2023/11/08 05:18:32;;;;;;;7.93;2.20;;;;;8.90;98547.00;;;;4954123;28;20051;-64
2023/11/08 05:20:59;;;;;;;10.38;2.83;;;;;8.90;98549.00;;;;4954176;29;20043;-65
2023/11/08 05:23:25;;;;;;;6.28;2.42;;;;;8.80;98549.00;;;;4937597;29;20055;-64
2023/11/08 05:25:52;;;;;;;9.13;1.90;;;;;8.90;98544.00;;;;4955365;28;20063;-64
2023/11/08 05:28:18;;;;;;;4.90;2.15;;;;;8.90;98547.00;;;;4955525;28;20049;-64
2023/11/08 05:30:45;;;;;;;6.70;1.58;;;;;8.90;98537.00;;;;4955628;28;20133;-64
2023/11/08 05:33:12;;;;;;;6.47;2.13;;;;;9.00;98543.00;;;;4954234;29;20043;-63
2023/11/08 05:35:39;;;;;;;4.35;1.85;;;;;9.00;98549.00;;;;4953710;28;20070;-64
2023/11/08 05:38:05;;;;;;;6.07;2.05;;;;;9.00;98534.00;;;;4955228;28;20102;-65
2023/11/08 05:40:34;;;;;;;7.85;2.22;;;;;9.00;98544.00;;;;4953879;29;20090;-65
2023/11/08 05:43:01;;;;;;;9.68;1.92;;;;;9.00;98534.00;;;;4955156;28;20051;-63
2023/11/08 05:45:27;;;;;;;6.35;1.85;;;;;9.00;98530.00;;;;4954214;28;20055;-65
2023/11/08 05:47:54;;;;;;;2.55;1.80;;;;;9.00;98527.00;;;;4954756;28;20047;-65
2023/11/08 05:50:21;;;;;;;5.95;1.65;;;;;9.00;98529.00;;;;4954846;28;20440;-65
2023/11/08 05:52:47;;;;;;;4.05;2.15;;;;;9.00;98531.00;;;;4954776;28;20047;-64
2023/11/08 05:55:14;;;;;;;6.25;2.08;;;;;9.00;98531.00;;;;4954199;28;20043;-65
2023/11/08 05:57:40;;;;;;;4.68;1.92;;;;;9.00;98537.00;;;;4954693;28;20416;-65
2023/11/08 06:00:09;;;;;;;5.93;1.65;;;;;9.00;98542.00;;;;4954558;28;20488;-65
2023/11/08 06:02:35;;;;;;;4.78;1.80;;;;;9.00;98545.00;;;;4937715;29;20412;-63
2023/11/08 06:05:05;;;;;;;5.78;2.22;;;;;9.10;98548.00;;;;4953869;28;20047;-65
2023/11/08 06:07:32;;;;;;;5.60;2.03;;;;;9.10;98551.00;;;;4954378;28;20496;-64
2023/11/08 06:10:00;;;;;;;9.68;2.45;;;;;9.10;98551.00;;;;4953205;29;20047;-65
2023/11/08 06:12:27;;;;;;;6.32;1.40;;;;;9.10;98555.00;;;;4954424;28;20052;-65
2023/11/08 06:14:54;;;;;;;2.80;1.48;;;;;9.10;98559.00;;;;4952275;29;20047;-64
2023/11/08 06:17:21;;;;;;;10.77;2.38;;;;;9.10;98561.00;;;;4937479;29;20050;-65
2023/11/08 06:19:48;;;;;;;5.65;1.63;;;;;9.20;98560.00;;;;4954494;28;20093;-65
2023/11/08 06:22:15;;;;;;;4.75;1.48;;;;;9.20;98559.00;;;;4937441;29;20058;-65
2023/11/08 06:24:42;;;;;;;7.07;2.25;;;;;9.10;98572.00;;;;4952517;29;20130;-65
2023/11/08 06:27:09;;;;;;;4.18;1.45;;;;;9.10;98566.00;;;;4953082;28;20109;-64
2023/11/08 06:29:39;;;;;;;2.40;1.52;;;;;9.10;98565.00;;;;4952723;28;20058;-65
2023/11/08 06:32:07;;;;;;;4.13;1.63;;;;;9.10;98565.00;;;;4954452;28;20460;-65
2023/11/08 06:34:33;;;;;;;4.05;1.60;;;;;9.20;98568.00;;;;4953622;28;20511;-65
2023/11/08 06:37:00;;;;;;;4.80;1.98;;;;;9.20;98577.00;;;;4954270;28;20125;-65
2023/11/08 06:39:28;;;;;;;5.93;1.75;;;;;9.20;98578.00;;;;4954088;28;20048;-65
2023/11/08 06:41:56;;;;;;;6.97;1.80;;;;;9.20;98573.00;;;;4954002;28;20046;-65
2023/11/08 06:44:23;;;;;;;5.20;1.90;;;;;9.20;98565.00;;;;4952104;28;20076;-65
2023/11/08 06:46:51;;;;;;;4.85;1.88;;;;;9.30;98562.00;;;;4953457;29;20055;-65
2023/11/08 06:49:17;;;;;;;5.97;1.48;;;;;9.30;98570.00;;;;4954099;28;20050;-65
2023/11/08 06:51:44;;;;;;;6.75;1.80;;;;;9.30;98575.00;;;;4952503;28;20051;-62
2023/11/08 06:54:12;;;;;;;5.53;1.95;;;;;9.30;98583.00;;;;4952044;28;20563;-63
2023/11/08 06:56:39;;;;;;;5.63;1.80;;;;;9.40;98588.00;;;;4953856;28;20102;-66
2023/11/08 06:59:06;;;;;;;5.65;1.50;;;;;9.40;98575.00;;;;4954064;28;20051;-61
2023/11/08 07:01:35;;;;;;;4.95;2.05;;;;;9.40;98577.00;;;;4952426;28;20142;-65
2023/11/08 07:04:02;;;;;;;6.20;1.98;;;;;9.40;98577.00;;;;4953273;28;20053;-64
2023/11/08 07:06:28;;;;;;;5.20;1.50;;;;;9.40;98586.00;;;;4953448;28;20134;-64
2023/11/08 07:08:55;;;;;;;6.75;1.52;;;;;9.50;98587.00;;;;4954314;28;20431;-65
2023/11/08 07:11:23;;;;;;;7.30;1.88;;;;;9.40;98595.00;;;;4953871;28;20043;-65
2023/11/08 07:13:50;;;;;;;4.97;1.73;;;;;9.50;98594.00;;;;4952058;29;20043;-64
2023/11/08 07:16:18;;;;;;;6.22;2.05;;;;;9.60;98599.00;;;;4953781;28;20058;-65
2023/11/08 07:18:45;;;;;;;5.15;1.90;;;;;9.60;98595.00;;;;4953320;29;20047;-66
2023/11/08 07:21:19;;;;;;;3.85;1.63;;;;;9.70;98597.00;;;;4953613;28;20473;-66
2023/11/08 07:23:46;;;;;;;4.40;1.98;;;;;9.80;98605.00;;;;4953065;28;20373;-65
2023/11/08 07:26:16;;;;;;;4.18;1.98;;;;;9.90;98596.00;;;;4953534;28;20048;-65
2023/11/08 07:28:44;;;;;;;5.35;1.98;;;;;9.90;98607.00;;;;4954047;28;20048;-65
2023/11/08 07:31:10;;;;;;;3.70;1.67;;;;;9.80;98601.00;;;;4953699;28;20547;-65
2023/11/08 07:33:37;;;;;;;4.20;1.92;;;;;9.60;98603.00;;;;4951560;29;20062;-65
2023/11/08 07:36:04;;;;;;;7.53;2.72;;;;;9.50;98604.00;;;;4952132;29;20047;-65
2023/11/08 07:38:35;;;;;;;3.47;1.75;;;;;9.50;98614.00;;;;4952206;29;20131;-65
2023/11/08 07:41:02;;;;;;;6.00;1.75;;;;;9.50;98611.00;;;;4955533;28;20086;-64
2023/11/08 07:43:29;;;;;;;9.18;1.92;;;;;9.40;98614.00;;;;4956109;29;20411;-64
2023/11/08 07:45:58;;;;;;;6.78;2.15;;;;;9.30;98624.00;;;;4957081;28;20146;-65
2023/11/08 07:48:26;;;;;;;6.90;1.85;;;;;9.40;98617.00;;;;4956853;28;20450;-65
2023/11/08 07:50:53;;;;;;;4.70;2.22;;;;;9.40;98618.00;;;;4956568;28;20047;-64
2023/11/08 07:53:20;;;;;;;4.78;1.50;;;;;9.40;98615.00;;;;4956705;28;20054;-61
2023/11/08 07:55:46;;;;;;;5.47;1.73;;;;;9.50;98622.00;;;;4956219;28;20054;-65
2023/11/08 07:58:13;;;;;;;6.28;1.83;;;;;9.60;98621.00;;;;4957018;28;20047;-63
2023/11/08 08:00:42;;;;;;;7.10;2.40;;;;;9.70;98625.00;;;;4955369;29;20043;-64
2023/11/08 08:03:08;;;;;;;6.68;1.98;;;;;9.70;98625.00;;;;4956563;28;20047;-65
2023/11/08 08:05:35;;;;;;;4.13;2.00;;;;;9.80;98620.00;;;;4955901;28;20071;-65
2023/11/08 08:08:01;;;;;;;4.25;1.67;;;;;9.90;98617.00;;;;4956391;28;20047;-65
2023/11/08 08:10:31;;;;;;;5.63;1.83;;;;;10.00;98619.00;;;;4956378;28;20055;-65
2023/11/08 08:12:58;;;;;;;4.15;2.00;;;;;10.20;98623.00;;;;4956379;28;20137;-65
2023/11/08 08:15:25;;;;;;;6.93;2.25;;;;;10.30;98618.00;;;;4955846;28;20134;-63
2023/11/08 08:17:51;;;;;;;4.00;1.98;;;;;10.50;98622.00;;;;4956352;28;20061;-62
2023/11/08 08:20:18;;;;;;;7.35;1.98;;;;;10.50;98625.00;;;;4956164;28;20130;-63
2023/11/08 08:22:45;;;;;;;3.38;1.73;;;;;10.60;98628.00;;;;4956317;28;20059;-62
2023/11/08 08:25:11;;;;;;;3.60;1.60;;;;;10.50;98620.00;;;;4955635;28;20050;-62
2023/11/08 08:27:42;;;;;;;3.45;1.48;;;;;10.60;98621.00;;;;4954823;28;20069;-66
2023/11/08 08:30:11;;;;;;;3.30;1.65;;;;;10.70;98623.00;;;;4956086;28;20051;-63
2023/11/08 08:32:37;;;;;;;3.38;2.00;;;;;10.80;98621.00;;;;4956228;28;20066;-63
2023/11/08 08:35:04;;;;;;;4.82;2.03;;;;;11.00;98626.00;;;;4937441;29;20146;-63
2023/11/08 08:37:32;;;;;;;3.90;1.80;;;;;10.90;98622.00;;;;4955570;28;20051;-61
2023/11/08 08:39:59;;;;;;;3.83;1.45;;;;;10.80;98625.00;;;;4955985;28;20095;-63
2023/11/08 08:42:26;;;;;;;7.85;2.20;;;;;10.70;98639.00;;;;4955923;28;20430;-65
2023/11/08 08:44:52;;;;;;;6.63;1.90;;;;;10.70;98636.00;;;;4953829;29;20047;-63
2023/11/08 08:47:19;;;;;;;5.63;1.77;;;;;10.70;98637.00;;;;4955833;28;20043;-63
2023/11/08 08:49:57;;;;;;;4.75;1.38;;;;;10.70;98646.00;;;;4955779;28;20134;-65
2023/11/08 08:52:25;;;;;;;4.88;2.17;;;;;10.60;98659.00;;;;4955281;28;20074;-62
2023/11/08 08:54:52;;;;;;;3.00;1.35;;;;;10.60;98643.00;;;;4953713;28;20062;-63
2023/11/08 08:57:18;;;;;;;4.95;1.65;;;;;10.60;98642.00;;;;4955723;28;20070;-62
2023/11/08 08:59:45;;;;;;;5.45;1.40;;;;;10.60;98644.00;;;;4955532;28;20114;-63
2023/11/08 09:02:11;;;;;;;5.03;1.60;;;;;10.60;98639.00;;;;4955716;28;20043;-63
2023/11/08 09:04:39;;;;;;;3.45;1.45;;;;;10.60;98643.00;;;;4953444;28;20055;-62
2023/11/08 09:07:05;;;;;;;2.95;1.15;;;;;10.60;98640.00;;;;4955448;28;20051;-62
2023/11/08 09:09:32;;;;;;;3.05;1.50;;;;;10.50;98643.00;;;;4956226;28;20081;-62
2023/11/08 09:11:58;;;;;;;3.40;1.00;;;;;10.50;98642.00;;;;4954228;29;20057;-62
2023/11/08 09:14:25;;;;;;;2.75;1.17;;;;;10.50;98631.00;;;;4954868;28;20047;-65
2023/11/08 09:16:52;;;;;;;2.85;1.15;;;;;10.50;98630.00;;;;4954138;29;20043;-64
2023/11/08 09:19:20;;;;;;;6.85;1.02;;;;;10.60;98642.00;;;;4955535;28;20063;-62
2023/11/08 09:21:47;;;;;;;4.70;1.20;;;;;10.70;98642.00;;;;4953993;28;20063;-62
2023/11/08 09:24:15;;;;;;;1.67;1.20;;;;;10.70;98633.00;;;;4954419;28;20067;-63
2023/11/08 09:26:42;;;;;;;2.72;0.98;;;;;10.70;98633.00;;;;4955079;28;20051;-62
2023/11/08 09:29:09;;;;;;;6.72;1.55;;;;;10.70;98632.00;;;;4955172;28;20055;-62
2023/11/08 09:31:38;;;;;;;5.20;1.45;;;;;10.70;98639.00;;;;4953898;29;20050;-62
2023/11/08 09:34:04;;;;;;;6.78;1.50;;;;;10.70;98641.00;;;;4954464;28;20051;-62
2023/11/08 09:36:31;;;;;;;3.78;1.40;;;;;10.70;98647.00;;;;4955209;28;20431;-62
2023/11/08 09:38:59;;;;;;;4.15;1.20;;;;;10.90;98641.00;;;;4954733;28;20051;-63
2023/11/08 09:41:27;;;;;;;3.72;1.38;;;;;11.10;98633.00;;;;4954785;28;20054;-63
2023/11/08 09:43:54;;;;;;;1.90;1.00;;;;;11.20;98641.00;;;;4952943;29;20126;-63
2023/11/08 09:46:21;;;;;;;2.15;1.00;;;;;11.20;98630.00;;;;4954654;29;20054;-63
2023/11/08 09:48:54;;;;;;;3.30;1.45;;;;;11.20;98630.00;;;;4953481;28;20057;-63
2023/11/08 09:51:20;;;;;;;2.50;1.00;;;;;11.20;98630.00;;;;4954545;28;20134;-62
2023/11/08 09:53:48;;;;;;;2.83;1.15;;;;;11.30;98615.00;;;;4952602;29;20039;-63
2023/11/08 09:56:15;;;;;;;3.85;1.02;;;;;11.40;98615.00;;;;4954734;28;20055;-62
2023/11/08 09:58:47;;;;;;;5.47;1.45;;;;;11.50;98619.00;;;;4954739;28;20047;-62
2023/11/08 10:01:15;;;;;;;2.10;1.08;;;;;11.50;98614.00;;;;4953467;29;20666;-63
2023/11/08 10:03:43;;;;;;;7.97;1.67;;;;;11.70;98612.00;;;;4952069;28;20523;-63
2023/11/08 10:06:11;;;;;;;7.07;1.60;;;;;11.80;98612.00;;;;4952953;28;20051;-62
2023/11/08 10:08:38;;;;;;;2.38;1.10;;;;;11.70;98608.00;;;;4954393;28;20075;-62
2023/11/08 10:11:06;;;;;;;4.35;1.17;;;;;11.60;98606.00;;;;4954413;28;20492;-63
2023/11/08 10:13:48;;;;;;;2.10;1.20;;;;;11.70;98604.00;;;;4952354;29;20043;-62
2023/11/08 10:16:16;;;;;;;3.38;1.23;;;;;11.80;98602.00;;;;4952991;29;20420;-62
2023/11/08 10:18:58;;;;;;;4.05;1.23;;;;;11.90;98599.00;;;;4954218;28;20058;-64
2023/11/08 10:21:48;;;;;;;4.32;1.02;;;;;12.00;98598.00;;;;4954229;28;20047;-62
2023/11/08 10:24:17;;;;;;;3.55;1.10;;;;;12.20;98605.00;;;;4952402;29;20130;-63
2023/11/08 10:26:44;;;;;;;1.83;0.90;;;;;12.30;98593.00;;;;4954158;28;20097;-62
2023/11/08 10:29:11;;;;;;;2.83;0.95;;;;;12.40;98588.00;;;;4954139;28;20130;-63
2023/11/08 10:31:42;;;;;;;5.60;1.23;;;;;12.60;98589.00;;;;4954010;28;20094;-62
2023/11/08 10:34:11;;;;;;;2.28;1.27;;;;;13.00;98582.00;;;;4936474;29;20054;-63
2023/11/08 10:36:39;;;;;;;3.70;1.10;;;;;13.20;98584.00;;;;4954043;28;20122;-63
2023/11/08 10:39:13;;;;;;;2.55;1.08;;;;;13.30;98584.00;;;;4953981;28;20514;-64
2023/11/08 10:41:44;;;;;;;3.33;1.00;;;;;13.30;98601.00;;;;4953020;29;20046;-62
2023/11/08 10:44:21;;;;;;;1.73;1.17;;;;;13.00;98597.00;;;;4953271;28;20467;-62
2023/11/08 10:46:58;;;;;;;3.55;0.98;;;;;12.80;98590.00;;;;4952711;28;20098;-62
2023/11/08 10:49:25;;;;;;;1.83;1.00;;;;;12.70;98588.00;;;;4953995;28;20059;-62
2023/11/08 10:51:53;;;;;;;10.38;1.40;;;;;12.70;98591.00;;;;4953696;28;20098;-63
2023/11/08 10:54:20;;;;;;;1.92;0.90;;;;;12.70;98585.00;;;;4953301;28;20407;-62
2023/11/08 10:56:49;;;;;;;4.88;1.60;;;;;12.50;98602.00;;;;4952589;28;20055;-65
2023/11/08 10:59:18;;;;;;;3.95;1.20;;;;;12.40;98595.00;;;;4953842;28;20050;-63
2023/11/08 11:01:46;;;;;;;4.82;1.05;;;;;12.30;98592.00;;;;4953765;28;20039;-64
2023/11/08 11:04:15;;;;;;;2.97;1.33;;;;;12.20;98589.00;;;;4953035;28;20043;-64
2023/11/08 11:06:43;;;;;;;2.17;1.15;;;;;12.10;98583.00;;;;4953675;28;20484;-65
2023/11/08 11:09:10;;;;;;;1.80;1.08;;;;;12.00;98592.00;;;;4953845;28;20098;-65
2023/11/08 11:11:47;;;;;;;2.15;0.90;;;;;12.00;98596.00;;;;4953755;28;20530;-65
2023/11/08 11:14:48;;;;;;;2.30;1.00;;;;;11.90;98581.00;;;;4953048;28;20658;-65
2023/11/08 11:17:26;;;;;;;4.03;1.20;;;;;11.90;98584.00;;;;4956098;29;20043;-64
2023/11/08 11:19:56;;;;;;;2.85;1.13;;;;;11.80;98577.00;;;;4957519;28;20047;-65
2023/11/08 11:22:23;;;;;;;2.92;1.02;;;;;11.70;98589.00;;;;4957289;28;20054;-65
2023/11/08 11:24:49;;;;;;;2.83;1.35;;;;;11.70;98584.00;;;;4956520;28;20059;-64
2023/11/08 11:27:38;;;;;;;2.55;1.23;;;;;11.80;98564.00;;;;4957216;28;20514;-65
2023/11/08 11:30:14;;;;;;;1.98;1.25;;;;;11.80;98576.00;;;;4956006;28;20413;-64
2023/11/08 11:32:47;;;;;;;1.65;1.15;;;;;11.90;98569.00;;;;4957309;28;20489;-64
2023/11/08 11:35:18;;;;;;;3.17;0.93;;;;;12.00;98575.00;;;;4957005;28;20047;-65
2023/11/08 11:38:07;;;;;;;1.20;1.10;;;;;12.10;98564.00;;;;4955632;29;20135;-64
2023/11/08 11:40:35;;;;;;;2.70;1.10;;;;;12.10;98568.00;;;;4957022;28;20047;-64
2023/11/08 11:43:02;;;;;;;2.17;1.17;;;;;12.30;98556.00;;;;4957001;28;20046;-65
2023/11/08 11:45:31;;;;;;;1.52;1.13;;;;;12.40;98549.00;;;;4955143;29;20077;-65
2023/11/08 11:47:59;;;;;;;3.05;1.02;;;;;12.60;98556.00;;;;4956888;28;20043;-64
2023/11/08 11:50:27;;;;;;;2.95;1.20;;;;;12.60;98552.00;;;;4956846;29;20058;-64
2023/11/08 11:52:53;;;;;;;2.53;1.10;;;;;12.60;98540.00;;;;4956881;28;20047;-64
2023/11/08 11:55:20;;;;;;;3.70;1.10;;;;;12.60;98553.00;;;;4956180;28;20051;-65
2023/11/08 11:57:47;;;;;;;2.83;1.15;;;;;12.70;98557.00;;;;4955691;29;20054;-65
2023/11/08 12:00:14;;;;;;;2.25;1.33;;;;;12.60;98554.00;;;;4956626;28;20488;-65
2023/11/08 12:02:41;;;;;;;3.35;1.08;;;;;12.40;98561.00;;;;4956912;28;20118;-67
2023/11/08 12:05:08;;;;;;;3.03;1.20;;;;;12.40;98552.00;;;;4954640;29;20047;-65
2023/11/08 12:07:37;;;;;;;1.73;1.02;;;;;12.40;98558.00;;;;4956242;28;20047;-65
2023/11/08 12:10:07;;;;;;;1.92;1.00;;;;;12.30;98546.00;;;;4956420;28;20043;-65
2023/11/08 12:12:34;;;;;;;3.03;1.92;;;;;12.40;98543.00;;;;4956359;28;20054;-65
2023/11/08 12:15:20;;;;;;;3.45;2.45;;;;;12.60;98537.00;;;;4955514;28;20103;-65
2023/11/08 12:17:52;;;;;;;4.20;1.40;;;;;12.70;98535.00;;;;4956370;28;20130;-65
2023/11/08 12:20:25;;;;;;;2.25;1.42;;;;;12.80;98520.00;;;;4955113;29;20063;-64
2023/11/08 12:22:53;;;;;;;2.75;1.02;;;;;13.00;98505.00;;;;4955334;28;20047;-65
2023/11/08 12:25:21;;;;;;;1.95;1.00;;;;;13.10;98497.00;;;;4955514;28;20511;-65
2023/11/08 12:27:52;;;;;;;1.48;1.10;;;;;13.40;98495.00;;;;4955351;28;20416;-65